createdAt,value
2018-09-24T00:00:53.191Z,1005.5
2018-09-24T00:01:53.980Z,1005.6
2018-09-24T00:02:54.759Z,1005.6
2018-09-24T00:03:56.000Z,1005.7
2018-09-24T00:04:57.027Z,1005.7
2018-09-24T00:05:57.836Z,1005.7
2018-09-24T00:06:58.796Z,1005.7
2018-09-24T00:07:59.571Z,1005.6
2018-09-24T00:09:01.106Z,1005.7
2018-09-24T00:12:25.691Z,1005.8
2018-09-24T00:13:27.093Z,1005.8
2018-09-24T00:14:28.080Z,1005.8
2018-09-24T00:15:29.071Z,1005.9
2018-09-24T00:16:30.458Z,1005.8
2018-09-24T00:17:31.481Z,1005.8
2018-09-24T00:18:32.256Z,1005.9
2018-09-24T00:19:33.049Z,1005.9
2018-09-24T00:20:33.828Z,1005.9
2018-09-24T00:21:34.650Z,1005.9
2018-09-24T00:22:35.443Z,1006.0
2018-09-24T00:23:36.449Z,1006.0
2018-09-24T00:24:37.433Z,1006.0
2018-09-24T00:25:38.440Z,1006.0
2018-09-24T00:26:39.494Z,1006.0
2018-09-24T00:27:40.521Z,1006.1
2018-09-24T00:28:41.300Z,1006.1
2018-09-24T00:29:42.060Z,1006.1
2018-09-24T00:30:42.839Z,1006.1
2018-09-24T00:31:43.718Z,1006.2
2018-09-24T00:32:44.730Z,1006.2
2018-09-24T00:33:45.796Z,1006.3
2018-09-24T00:34:46.639Z,1006.3
2018-09-24T00:35:47.473Z,1006.3
2018-09-24T00:36:49.232Z,1006.3
2018-09-24T00:37:50.395Z,1006.3
2018-09-24T00:38:51.437Z,1006.3
2018-09-24T00:39:52.533Z,1006.3
2018-09-24T00:40:53.656Z,1006.3
2018-09-24T00:41:54.730Z,1006.4
2018-09-24T00:42:55.585Z,1006.3
2018-09-24T00:43:56.607Z,1006.3
2018-09-24T00:44:57.623Z,1006.4
2018-09-24T00:45:58.389Z,1006.4
2018-09-24T00:46:59.290Z,1006.5
2018-09-24T00:48:00.078Z,1006.4
2018-09-24T00:49:01.102Z,1006.5
2018-09-24T00:50:02.062Z,1006.5
2018-09-24T00:51:03.021Z,1006.5
2018-09-24T00:52:04.189Z,1006.5
2018-09-24T00:53:05.172Z,1006.5
2018-09-24T00:54:06.390Z,1006.5
2018-09-24T00:55:07.365Z,1006.5
2018-09-24T00:56:08.352Z,1006.5
2018-09-24T00:57:09.502Z,1006.6
2018-09-24T00:58:10.665Z,1006.6
2018-09-24T00:59:11.453Z,1006.6
2018-09-24T01:00:12.243Z,1006.6
2018-09-24T01:01:13.065Z,1006.6
2018-09-24T01:02:13.845Z,1006.7
2018-09-24T01:03:14.817Z,1006.7
2018-09-24T01:04:15.836Z,1006.7
2018-09-24T01:05:16.814Z,1006.7
2018-09-24T01:06:17.838Z,1006.7
2018-09-24T01:07:18.624Z,1006.8
2018-09-24T01:08:19.419Z,1006.8
2018-09-24T01:09:20.224Z,1006.8
2018-09-24T01:10:21.234Z,1006.8
2018-09-24T01:11:22.039Z,1006.9
2018-09-24T01:12:22.833Z,1006.8
2018-09-24T01:13:23.635Z,1006.8
2018-09-24T01:14:24.409Z,1006.8
2018-09-24T01:15:25.234Z,1006.9
2018-09-24T01:16:26.244Z,1006.9
2018-09-24T01:17:27.204Z,1006.9
2018-09-24T01:18:28.195Z,1007.0
2018-09-24T01:19:29.200Z,1007.0
2018-09-24T01:20:30.241Z,1007.0
2018-09-24T01:21:31.030Z,1007.0
2018-09-24T01:22:32.036Z,1007.0
2018-09-24T01:23:32.817Z,1007.1
2018-09-24T01:24:33.852Z,1007.1
2018-09-24T01:25:34.861Z,1007.1
2018-09-24T01:26:35.696Z,1007.1
2018-09-24T01:27:36.720Z,1007.1
2018-09-24T01:28:37.950Z,1007.1
2018-09-24T01:29:39.206Z,1007.1
2018-09-24T01:30:39.952Z,1007.2
2018-09-24T01:31:40.936Z,1007.2
2018-09-24T01:32:41.826Z,1007.2
2018-09-24T01:33:42.630Z,1007.2
2018-09-24T01:34:43.429Z,1007.2
2018-09-24T01:35:44.227Z,1007.2
2018-09-24T01:36:45.004Z,1007.3
2018-09-24T01:37:45.809Z,1007.3
2018-09-24T01:38:46.678Z,1007.3
2018-09-24T01:39:47.666Z,1007.3
2018-09-24T01:40:48.445Z,1007.3
2018-09-24T01:41:49.223Z,1007.3
2018-09-24T01:42:50.197Z,1007.4
2018-09-24T01:43:51.032Z,1007.4
2018-09-24T01:44:52.061Z,1007.5
2018-09-24T01:45:53.040Z,1007.5
2018-09-24T01:46:54.037Z,1007.5
2018-09-24T01:47:54.814Z,1007.5
2018-09-24T01:48:55.879Z,1007.5
2018-09-24T01:49:56.660Z,1007.5
2018-09-24T01:50:57.640Z,1007.6
2018-09-24T01:51:58.414Z,1007.6
2018-09-24T01:52:59.231Z,1007.6
2018-09-24T01:54:00.078Z,1007.6
2018-09-24T01:55:00.910Z,1007.7
2018-09-24T01:56:01.735Z,1007.7
2018-09-24T01:57:02.513Z,1007.7
2018-09-24T01:58:03.314Z,1007.8
2018-09-24T01:59:04.256Z,1007.8
2018-09-24T02:00:05.279Z,1007.8
2018-09-24T02:01:06.527Z,1007.8
2018-09-24T02:02:07.299Z,1007.8
2018-09-24T02:03:08.267Z,1007.8
2018-09-24T02:04:09.258Z,1007.7
2018-09-24T02:05:10.300Z,1007.7
2018-09-24T02:06:11.333Z,1007.7
2018-09-24T02:07:12.101Z,1007.8
2018-09-24T02:08:12.873Z,1007.7
2018-09-24T02:09:13.655Z,1007.8
2018-09-24T02:10:14.514Z,1007.8
2018-09-24T02:11:15.632Z,1007.8
2018-09-24T02:12:16.777Z,1007.8
2018-09-24T02:13:17.772Z,1007.8
2018-09-24T02:14:18.758Z,1007.8
2018-09-24T02:15:19.819Z,1007.8
2018-09-24T02:16:20.836Z,1007.8
2018-09-24T02:17:21.647Z,1007.9
2018-09-24T02:18:22.439Z,1007.9
2018-09-24T02:19:23.224Z,1007.9
2018-09-24T02:20:24.664Z,1007.9
2018-09-24T02:21:25.455Z,1007.9
2018-09-24T02:22:26.259Z,1008.0
2018-09-24T02:23:27.480Z,1007.9
2018-09-24T02:24:28.516Z,1008.0
2018-09-24T02:25:29.756Z,1008.1
2018-09-24T02:26:30.734Z,1008.1
2018-09-24T02:27:31.740Z,1008.1
2018-09-24T02:28:32.750Z,1008.1
2018-09-24T02:29:33.550Z,1008.1
2018-09-24T02:30:34.361Z,1008.2
2018-09-24T02:31:35.425Z,1008.2
2018-09-24T02:32:36.381Z,1008.1
2018-09-24T02:33:37.380Z,1008.1
2018-09-24T02:34:38.350Z,1008.2
2018-09-24T02:35:39.596Z,1008.1
2018-09-24T02:36:40.650Z,1008.2
2018-09-24T02:37:41.459Z,1008.3
2018-09-24T02:38:42.856Z,1008.3
2018-09-24T02:39:43.674Z,1008.3
2018-09-24T02:40:44.789Z,1008.3
2018-09-24T02:41:45.581Z,1008.3
2018-09-24T02:42:46.656Z,1008.4
2018-09-24T02:43:47.513Z,1008.4
2018-09-24T02:44:48.505Z,1008.5
2018-09-24T02:45:49.302Z,1008.5
2018-09-24T02:46:50.285Z,1008.5
2018-09-24T02:47:51.069Z,1008.6
2018-09-24T02:48:52.045Z,1008.6
2018-09-24T02:49:53.346Z,1008.5
2018-09-24T02:50:54.317Z,1008.6
2018-09-24T02:51:55.317Z,1008.6
2018-09-24T02:52:56.308Z,1008.6
2018-09-24T02:53:57.118Z,1008.6
2018-09-24T02:54:57.923Z,1008.6
2018-09-24T02:55:58.695Z,1008.6
2018-09-24T02:56:59.497Z,1008.6
2018-09-24T02:58:00.515Z,1008.6
2018-09-24T02:59:01.348Z,1008.6
2018-09-24T03:00:02.107Z,1008.6
2018-09-24T03:01:03.129Z,1008.6
2018-09-24T03:02:04.119Z,1008.6
2018-09-24T03:03:05.096Z,1008.7
2018-09-24T03:04:06.117Z,1008.7
2018-09-24T03:05:07.100Z,1008.7
2018-09-24T03:06:07.916Z,1008.7
2018-09-24T03:07:08.749Z,1008.7
2018-09-24T03:08:09.524Z,1008.7
2018-09-24T03:10:25.859Z,1008.8
2018-09-24T03:11:26.844Z,1008.8
2018-09-24T03:12:27.828Z,1008.8
2018-09-24T03:13:28.806Z,1008.8
2018-09-24T03:14:29.800Z,1008.9
2018-09-24T03:15:30.554Z,1008.9
2018-09-24T03:16:31.369Z,1009.0
2018-09-24T03:17:32.139Z,1009.0
2018-09-24T03:18:32.952Z,1009.0
2018-09-24T03:19:33.707Z,1009.0
2018-09-24T03:20:34.534Z,1009.0
2018-09-24T03:21:35.300Z,1009.1
2018-09-24T03:22:36.062Z,1009.1
2018-09-24T03:23:37.036Z,1009.1
2018-09-24T03:24:38.045Z,1009.2
2018-09-24T03:25:39.084Z,1009.2
2018-09-24T03:26:40.063Z,1009.2
2018-09-24T03:27:41.075Z,1009.2
2018-09-24T03:28:42.056Z,1009.1
2018-09-24T03:29:42.867Z,1009.1
2018-09-24T03:30:43.709Z,1009.1
2018-09-24T03:31:44.767Z,1009.1
2018-09-24T03:32:45.533Z,1009.1
2018-09-24T03:33:46.305Z,1009.2
2018-09-24T03:34:47.146Z,1009.2
2018-09-24T03:35:48.117Z,1009.1
2018-09-24T03:36:49.357Z,1009.1
2018-09-24T03:37:50.304Z,1009.2
2018-09-24T03:38:51.075Z,1009.1
2018-09-24T03:39:52.082Z,1009.1
2018-09-24T03:40:53.174Z,1009.2
2018-09-24T03:41:54.225Z,1009.1
2018-09-24T03:42:54.953Z,1009.1
2018-09-24T03:43:55.762Z,1009.2
2018-09-24T03:44:56.808Z,1009.1
2018-09-24T03:45:57.839Z,1009.1
2018-09-24T03:46:58.615Z,1009.2
2018-09-24T03:47:59.374Z,1009.2
2018-09-24T03:49:00.378Z,1009.2
2018-09-24T03:50:01.564Z,1009.2
2018-09-24T03:51:02.625Z,1009.2
2018-09-24T03:52:03.707Z,1009.3
2018-09-24T03:53:04.800Z,1009.3
2018-09-24T03:54:05.882Z,1009.3
2018-09-24T03:55:06.764Z,1009.3
2018-09-24T03:56:07.595Z,1009.3
2018-09-24T03:57:08.584Z,1009.3
2018-09-24T03:58:09.481Z,1009.4
2018-09-24T03:59:10.605Z,1009.4
2018-09-24T04:00:11.506Z,1009.4
2018-09-24T04:01:12.763Z,1009.4
2018-09-24T04:02:13.902Z,1009.5
2018-09-24T04:03:14.940Z,1009.5
2018-09-24T04:04:16.049Z,1009.5
2018-09-24T04:05:17.059Z,1009.5
2018-09-24T04:06:18.425Z,1009.5
2018-09-24T04:07:19.196Z,1009.5
2018-09-24T04:08:19.966Z,1009.5
2018-09-24T04:09:20.834Z,1009.5
2018-09-24T04:10:21.547Z,1009.5
2018-09-24T04:11:22.350Z,1009.5
2018-09-24T04:12:23.354Z,1009.5
2018-09-24T04:13:24.387Z,1009.6
2018-09-24T04:14:25.172Z,1009.6
2018-09-24T04:15:26.142Z,1009.6
2018-09-24T04:16:27.167Z,1009.6
2018-09-24T04:17:28.198Z,1009.6
2018-09-24T04:18:29.437Z,1009.7
2018-09-24T04:19:30.320Z,1009.7
2018-09-24T04:20:31.075Z,1009.7
2018-09-24T04:21:32.252Z,1009.7
2018-09-24T04:22:33.049Z,1009.7
2018-09-24T04:23:33.805Z,1009.7
2018-09-24T04:24:34.575Z,1009.7
2018-09-24T04:25:35.529Z,1009.7
2018-09-24T04:26:36.524Z,1009.7
2018-09-24T04:27:37.753Z,1009.7
2018-09-24T04:28:38.770Z,1009.7
2018-09-24T04:29:39.751Z,1009.7
2018-09-24T04:30:40.711Z,1009.8
2018-09-24T04:31:41.736Z,1009.9
2018-09-24T04:32:42.515Z,1009.8
2018-09-24T04:33:43.318Z,1009.8
2018-09-24T04:34:44.095Z,1009.8
2018-09-24T04:35:44.875Z,1009.9
2018-09-24T04:36:45.637Z,1010.0
2018-09-24T04:37:46.642Z,1010.0
2018-09-24T04:38:47.457Z,1010.0
2018-09-24T04:39:48.433Z,1009.9
2018-09-24T04:40:49.448Z,1010.0
2018-09-24T04:41:50.418Z,1010.0
2018-09-24T04:42:51.386Z,1009.9
2018-09-24T04:43:52.441Z,1009.9
2018-09-24T04:44:53.216Z,1009.9
2018-09-24T04:45:54.012Z,1009.9
2018-09-24T04:46:54.792Z,1009.9
2018-09-24T04:47:55.544Z,1009.9
2018-09-24T04:48:56.522Z,1009.9
2018-09-24T04:49:57.554Z,1009.9
2018-09-24T04:50:58.561Z,1010.0
2018-09-24T04:51:59.659Z,1010.0
2018-09-24T04:53:00.637Z,1010.0
2018-09-24T04:54:01.416Z,1010.1
2018-09-24T04:55:02.213Z,1010.1
2018-09-24T04:56:03.003Z,1010.2
2018-09-24T04:57:03.818Z,1010.2
2018-09-24T04:58:04.584Z,1010.1
2018-09-24T04:59:05.352Z,1010.1
2018-09-24T05:00:06.156Z,1010.2
2018-09-24T05:01:07.199Z,1010.2
2018-09-24T05:02:08.237Z,1010.1
2018-09-24T05:03:09.215Z,1010.2
2018-09-24T05:04:10.189Z,1010.2
2018-09-24T05:05:11.156Z,1010.1
2018-09-24T05:06:12.135Z,1010.2
2018-09-24T05:07:13.125Z,1010.3
2018-09-24T05:08:13.917Z,1010.3
2018-09-24T05:09:14.797Z,1010.4
2018-09-24T05:10:15.788Z,1010.4
2018-09-24T05:11:16.605Z,1010.4
2018-09-24T05:12:17.715Z,1010.5
2018-09-24T05:13:18.499Z,1010.4
2018-09-24T05:14:19.793Z,1010.4
2018-09-24T05:15:20.918Z,1010.4
2018-09-24T05:16:21.912Z,1010.4
2018-09-24T05:17:22.957Z,1010.4
2018-09-24T05:18:23.996Z,1010.4
2018-09-24T05:19:25.051Z,1010.4
2018-09-24T05:20:25.933Z,1010.4
2018-09-24T05:21:26.911Z,1010.4
2018-09-24T05:22:28.395Z,1010.4
2018-09-24T05:23:29.188Z,1010.5
2018-09-24T05:24:29.986Z,1010.5
2018-09-24T05:25:31.019Z,1010.5
2018-09-24T05:26:32.149Z,1010.5
2018-09-24T05:27:33.208Z,1010.5
2018-09-24T05:28:34.265Z,1010.5
2018-09-24T05:29:35.058Z,1010.5
2018-09-24T05:30:35.917Z,1010.5
2018-09-24T05:31:36.989Z,1010.5
2018-09-24T05:32:38.292Z,1010.5
2018-09-24T05:33:39.272Z,1010.5
2018-09-24T05:34:40.245Z,1010.6
2018-09-24T05:35:41.224Z,1010.6
2018-09-24T05:36:42.005Z,1010.6
2018-09-24T05:37:43.122Z,1010.6
2018-09-24T05:38:43.928Z,1010.6
2018-09-24T05:39:44.937Z,1010.7
2018-09-24T05:40:45.966Z,1010.7
2018-09-24T05:41:47.009Z,1010.7
2018-09-24T05:42:48.069Z,1010.6
2018-09-24T05:43:49.308Z,1010.7
2018-09-24T05:44:50.308Z,1010.7
2018-09-24T05:45:51.074Z,1010.7
2018-09-24T05:46:52.086Z,1010.8
2018-09-24T05:47:53.513Z,1010.8
2018-09-24T05:48:54.502Z,1010.8
2018-09-24T05:49:55.760Z,1010.9
2018-09-24T05:50:57.089Z,1010.9
2018-09-24T05:51:57.887Z,1010.9
2018-09-24T05:52:59.236Z,1010.9
2018-09-24T05:54:00.360Z,1010.9
2018-09-24T05:55:01.184Z,1010.9
2018-09-24T05:56:02.330Z,1010.9
2018-09-24T05:57:03.309Z,1010.9
2018-09-24T05:58:04.419Z,1011.0
2018-09-24T05:59:05.520Z,1010.9
2018-09-24T06:00:06.293Z,1011.0
2018-09-24T06:01:07.259Z,1011.0
2018-09-24T06:02:08.226Z,1011.0
2018-09-24T06:03:08.990Z,1011.0
2018-09-24T06:04:09.780Z,1010.9
2018-09-24T06:05:10.562Z,1011.0
2018-09-24T06:06:11.388Z,1011.0
2018-09-24T06:07:12.153Z,1011.0
2018-09-24T06:08:13.120Z,1011.1
2018-09-24T06:09:14.075Z,1011.1
2018-09-24T06:10:15.413Z,1011.2
2018-09-24T06:11:16.389Z,1011.2
2018-09-24T06:12:17.345Z,1011.2
2018-09-24T06:13:18.110Z,1011.2
2018-09-24T06:14:19.081Z,1011.2
2018-09-24T06:15:19.870Z,1011.2
2018-09-24T06:16:20.998Z,1011.2
2018-09-24T06:17:22.017Z,1011.2
2018-09-24T06:18:22.804Z,1011.3
2018-09-24T06:19:23.584Z,1011.3
2018-09-24T06:20:24.600Z,1011.2
2018-09-24T06:21:25.654Z,1011.2
2018-09-24T06:22:26.623Z,1011.3
2018-09-24T06:23:27.589Z,1011.2
2018-09-24T06:24:28.553Z,1011.3
2018-09-24T06:25:29.519Z,1011.3
2018-09-24T06:26:30.840Z,1011.3
2018-09-24T06:27:31.614Z,1011.3
2018-09-24T06:28:32.477Z,1011.3
2018-09-24T06:29:33.169Z,1011.3
2018-09-24T06:30:33.950Z,1011.4
2018-09-24T06:31:34.755Z,1011.4
2018-09-24T06:32:35.525Z,1011.4
2018-09-24T06:33:36.509Z,1011.5
2018-09-24T06:34:37.490Z,1011.5
2018-09-24T06:35:38.712Z,1011.5
2018-09-24T06:36:39.688Z,1011.5
2018-09-24T06:37:40.670Z,1011.5
2018-09-24T06:38:41.451Z,1011.6
2018-09-24T06:39:42.224Z,1011.6
2018-09-24T06:40:43.017Z,1011.6
2018-09-24T06:41:43.793Z,1011.7
2018-09-24T06:42:44.576Z,1011.7
2018-09-24T06:43:45.360Z,1011.7
2018-09-24T06:44:46.136Z,1011.7
2018-09-24T06:45:46.944Z,1011.8
2018-09-24T06:46:47.708Z,1011.8
2018-09-24T06:47:48.684Z,1011.9
2018-09-24T06:48:49.669Z,1011.9
2018-09-24T06:49:50.642Z,1012.0
2018-09-24T06:50:51.607Z,1011.9
2018-09-24T06:51:52.583Z,1011.9
2018-09-24T06:52:53.583Z,1011.9
2018-09-24T06:53:54.355Z,1011.9
2018-09-24T06:54:55.129Z,1011.9
2018-09-24T06:55:56.109Z,1012.0
2018-09-24T06:56:56.882Z,1012.0
2018-09-24T06:57:57.644Z,1012.0
2018-09-24T06:58:58.619Z,1012.0
2018-09-24T06:59:59.592Z,1012.0
2018-09-24T07:01:00.615Z,1012.0
2018-09-24T07:02:01.582Z,1012.0
2018-09-24T07:03:02.373Z,1012.0
2018-09-24T07:04:03.146Z,1012.0
2018-09-24T07:05:04.123Z,1012.0
2018-09-24T07:06:04.953Z,1012.0
2018-09-24T07:07:05.738Z,1012.0
2018-09-24T07:08:06.706Z,1011.9
2018-09-24T07:09:07.481Z,1012.0
2018-09-24T07:10:08.263Z,1012.0
2018-09-24T07:11:09.330Z,1012.0
2018-09-24T07:12:10.279Z,1012.1
2018-09-24T07:13:11.246Z,1012.1
2018-09-24T07:14:12.643Z,1012.1
2018-09-24T07:15:13.641Z,1012.1
2018-09-24T07:16:14.663Z,1012.1
2018-09-24T07:17:15.646Z,1012.1
2018-09-24T07:18:16.424Z,1012.1
2018-09-24T07:19:17.441Z,1012.2
2018-09-24T07:20:18.228Z,1012.2
2018-09-24T07:21:19.050Z,1012.2
2018-09-24T07:22:19.834Z,1012.2
2018-09-24T07:23:20.580Z,1012.2
2018-09-24T07:24:21.361Z,1012.3
2018-09-24T07:25:22.126Z,1012.4
2018-09-24T07:26:23.147Z,1012.3
2018-09-24T07:27:24.119Z,1012.3
2018-09-24T07:28:25.167Z,1012.3
2018-09-24T07:29:26.142Z,1012.3
2018-09-24T07:30:27.111Z,1012.3
2018-09-24T07:31:28.084Z,1012.3
2018-09-24T07:32:28.872Z,1012.3
2018-09-24T07:33:30.068Z,1012.4
2018-09-24T07:34:31.504Z,1012.4
2018-09-24T07:35:32.531Z,1012.4
2018-09-24T07:36:33.530Z,1012.4
2018-09-24T07:37:34.507Z,1012.5
2018-09-24T07:38:35.278Z,1012.5
2018-09-24T07:39:36.054Z,1012.5
2018-09-24T07:40:37.288Z,1012.5
2018-09-24T07:41:38.265Z,1012.5
2018-09-24T07:42:39.250Z,1012.5
2018-09-24T07:43:40.026Z,1012.6
2018-09-24T07:44:40.818Z,1012.6
2018-09-24T07:45:41.593Z,1012.6
2018-09-24T07:46:42.375Z,1012.6
2018-09-24T07:47:43.192Z,1012.7
2018-09-24T07:48:43.965Z,1012.7
2018-09-24T07:49:44.745Z,1012.6
2018-09-24T07:50:45.519Z,1012.6
2018-09-24T07:51:46.516Z,1012.7
2018-09-24T07:52:47.482Z,1012.7
2018-09-24T07:53:48.487Z,1012.7
2018-09-24T07:54:49.471Z,1012.8
2018-09-24T07:55:50.457Z,1012.8
2018-09-24T07:56:51.426Z,1012.8
2018-09-24T07:57:52.409Z,1012.9
2018-09-24T07:58:53.196Z,1012.8
2018-09-24T07:59:53.968Z,1012.8
2018-09-24T08:00:54.821Z,1012.9
2018-09-24T08:01:55.600Z,1012.9
2018-09-24T08:02:56.369Z,1012.9
2018-09-24T08:03:57.151Z,1012.9
2018-09-24T08:04:57.926Z,1012.9
2018-09-24T08:05:58.692Z,1012.9
2018-09-24T08:06:59.675Z,1012.9
2018-09-24T08:08:00.660Z,1012.9
2018-09-24T08:09:01.648Z,1012.9
2018-09-24T08:10:02.629Z,1012.9
2018-09-24T08:11:03.614Z,1013.0
2018-09-24T08:12:04.393Z,1013.0
2018-09-24T08:13:05.418Z,1013.0
2018-09-24T08:14:06.183Z,1013.0
2018-09-24T08:15:06.965Z,1013.0
2018-09-24T08:16:07.997Z,1013.0
2018-09-24T08:17:08.792Z,1013.0
2018-09-24T08:18:09.576Z,1013.0
2018-09-24T08:19:10.365Z,1013.1
2018-09-24T08:20:11.355Z,1013.1
2018-09-24T08:21:12.418Z,1013.1
2018-09-24T08:22:13.360Z,1013.0
2018-09-24T08:23:14.132Z,1013.1
2018-09-24T08:24:15.105Z,1013.2
2018-09-24T08:25:15.885Z,1013.1
2018-09-24T08:26:17.077Z,1013.1
2018-09-24T08:27:18.104Z,1013.2
2018-09-24T08:28:18.883Z,1013.2
2018-09-24T08:29:19.682Z,1013.2
2018-09-24T08:30:20.464Z,1013.2
2018-09-24T08:31:21.579Z,1013.2
2018-09-24T08:32:22.571Z,1013.3
2018-09-24T08:33:23.556Z,1013.2
2018-09-24T08:34:24.553Z,1013.3
2018-09-24T08:35:25.780Z,1013.2
2018-09-24T08:36:26.765Z,1013.3
2018-09-24T08:37:27.548Z,1013.3
2018-09-24T08:38:28.320Z,1013.3
2018-09-24T08:39:29.093Z,1013.3
2018-09-24T08:40:29.873Z,1013.3
2018-09-24T08:41:30.706Z,1013.3
2018-09-24T08:42:31.486Z,1013.3
2018-09-24T08:43:32.272Z,1013.3
2018-09-24T08:44:33.045Z,1013.3
2018-09-24T08:45:34.032Z,1013.3
2018-09-24T08:46:35.257Z,1013.4
2018-09-24T08:47:36.233Z,1013.4
2018-09-24T08:48:37.212Z,1013.4
2018-09-24T08:49:38.207Z,1013.4
2018-09-24T08:50:39.186Z,1013.5
2018-09-24T08:51:39.962Z,1013.5
2018-09-24T08:52:40.753Z,1013.5
2018-09-24T08:53:41.584Z,1013.6
2018-09-24T08:54:42.380Z,1013.5
2018-09-24T08:55:43.184Z,1013.5
2018-09-24T08:56:44.014Z,1013.6
2018-09-24T08:57:44.930Z,1013.5
2018-09-24T08:58:45.978Z,1013.5
2018-09-24T08:59:46.954Z,1013.6
2018-09-24T09:00:47.966Z,1013.5
2018-09-24T09:01:48.955Z,1013.5
2018-09-24T09:02:50.044Z,1013.5
2018-09-24T09:03:50.787Z,1013.5
2018-09-24T09:04:51.574Z,1013.5
2018-09-24T09:05:52.366Z,1013.5
2018-09-24T09:06:53.168Z,1013.6
2018-09-24T09:07:53.955Z,1013.5
2018-09-24T09:08:54.764Z,1013.5
2018-09-24T09:09:55.550Z,1013.5
2018-09-24T09:10:56.528Z,1013.5
2018-09-24T09:11:57.522Z,1013.6
2018-09-24T09:12:58.892Z,1013.5
2018-09-24T09:13:59.864Z,1013.5
2018-09-24T09:15:00.900Z,1013.5
2018-09-24T09:16:01.676Z,1013.5
2018-09-24T09:17:02.472Z,1013.5
2018-09-24T09:18:03.259Z,1013.5
2018-09-24T09:19:04.033Z,1013.6
2018-09-24T09:20:04.895Z,1013.5
2018-09-24T09:21:05.665Z,1013.6
2018-09-24T09:22:06.430Z,1013.5
2018-09-24T09:23:07.200Z,1013.5
2018-09-24T09:24:08.195Z,1013.6
2018-09-24T09:25:09.520Z,1013.6
2018-09-24T09:26:10.545Z,1013.6
2018-09-24T09:27:11.583Z,1013.5
2018-09-24T09:28:12.631Z,1013.7
2018-09-24T09:29:13.546Z,1013.7
2018-09-24T09:30:14.289Z,1013.7
2018-09-24T09:31:15.427Z,1013.7
2018-09-24T09:32:16.221Z,1013.7
2018-09-24T09:33:17.214Z,1013.7
2018-09-24T09:34:17.996Z,1013.7
2018-09-24T09:35:19.291Z,1013.7
2018-09-24T09:36:20.228Z,1013.8
2018-09-24T09:37:21.217Z,1013.7
2018-09-24T09:38:22.542Z,1013.8
2018-09-24T09:39:23.540Z,1013.8
2018-09-24T09:40:24.538Z,1013.8
2018-09-24T09:41:25.534Z,1013.8
2018-09-24T09:42:26.568Z,1013.8
2018-09-24T09:43:27.374Z,1013.9
2018-09-24T09:44:28.148Z,1013.8
2018-09-24T09:45:28.946Z,1013.8
2018-09-24T09:46:29.742Z,1013.9
2018-09-24T09:47:30.723Z,1013.9
2018-09-24T09:48:31.841Z,1013.9
2018-09-24T09:49:32.833Z,1013.9
2018-09-24T09:50:33.823Z,1013.9
2018-09-24T09:51:34.798Z,1013.9
2018-09-24T09:52:35.569Z,1013.9
2018-09-24T09:53:36.650Z,1014.0
2018-09-24T09:54:37.614Z,1013.9
2018-09-24T09:55:38.397Z,1013.9
2018-09-24T09:56:39.185Z,1013.9
2018-09-24T09:57:40.216Z,1014.0
2018-09-24T09:58:41.817Z,1013.9
2018-09-24T09:59:42.560Z,1013.9
2018-09-24T10:00:43.391Z,1013.9
2018-09-24T10:01:44.382Z,1013.8
2018-09-24T10:02:45.376Z,1013.9
2018-09-24T10:03:46.410Z,1013.9
2018-09-24T10:04:47.228Z,1013.9
2018-09-24T10:05:47.998Z,1013.8
2018-09-24T10:06:48.781Z,1013.9
2018-09-24T10:07:49.571Z,1013.9
2018-09-24T10:08:50.418Z,1013.9
2018-09-24T10:09:51.422Z,1013.9
2018-09-24T10:10:52.198Z,1013.9
2018-09-24T10:11:52.980Z,1013.9
2018-09-24T10:12:53.994Z,1013.8
2018-09-24T10:13:54.812Z,1013.8
2018-09-24T10:14:55.803Z,1013.8
2018-09-24T10:15:56.786Z,1013.8
2018-09-24T10:16:57.778Z,1013.9
2018-09-24T10:17:58.772Z,1013.8
2018-09-24T10:18:59.826Z,1013.9
2018-09-24T10:20:01.316Z,1013.9
2018-09-24T10:21:02.591Z,1013.9
2018-09-24T10:22:03.538Z,1013.8
2018-09-24T10:23:04.327Z,1013.9
2018-09-24T10:24:05.148Z,1013.8
2018-09-24T10:25:05.939Z,1013.8
2018-09-24T10:26:06.981Z,1013.8
2018-09-24T10:27:08.230Z,1013.9
2018-09-24T10:28:09.214Z,1013.9
2018-09-24T10:29:10.008Z,1013.8
2018-09-24T10:30:11.248Z,1013.9
2018-09-24T10:31:12.223Z,1013.9
2018-09-24T10:32:13.206Z,1013.8
2018-09-24T10:33:13.990Z,1013.8
2018-09-24T10:34:14.791Z,1013.8
2018-09-24T10:35:15.657Z,1013.8
2018-09-24T10:36:16.462Z,1013.8
2018-09-24T10:37:17.246Z,1013.8
2018-09-24T10:38:18.012Z,1013.9
2018-09-24T10:39:18.791Z,1013.8
2018-09-24T10:40:19.780Z,1013.9
2018-09-24T10:41:20.767Z,1013.9
2018-09-24T10:42:21.738Z,1013.8
2018-09-24T10:43:22.722Z,1013.8
2018-09-24T10:44:23.961Z,1013.8
2018-09-24T10:45:24.954Z,1013.8
2018-09-24T10:46:25.746Z,1013.8
2018-09-24T10:47:26.514Z,1013.8
2018-09-24T10:48:27.308Z,1013.8
2018-09-24T10:49:28.089Z,1013.8
2018-09-24T10:50:29.133Z,1013.8
2018-09-24T10:51:29.914Z,1013.9
2018-09-24T10:52:30.692Z,1013.8
2018-09-24T10:53:31.456Z,1013.9
2018-09-24T10:54:32.460Z,1013.9
2018-09-24T10:55:33.450Z,1013.9
2018-09-24T10:56:34.449Z,1013.9
2018-09-24T10:57:35.416Z,1013.9
2018-09-24T10:58:36.408Z,1013.9
2018-09-24T10:59:37.693Z,1013.9
2018-09-24T11:00:38.436Z,1013.9
2018-09-24T11:01:39.266Z,1013.9
2018-09-24T11:02:40.415Z,1013.8
2018-09-24T11:03:41.214Z,1013.9
2018-09-24T11:04:42.031Z,1014.0
2018-09-24T11:05:42.759Z,1014.0
2018-09-24T11:06:43.526Z,1013.9
2018-09-24T11:07:44.612Z,1013.9
2018-09-24T11:08:45.526Z,1013.9
2018-09-24T11:09:46.517Z,1014.0
2018-09-24T11:10:47.525Z,1014.0
2018-09-24T11:11:48.528Z,1014.0
2018-09-24T11:12:49.700Z,1014.0
2018-09-24T11:13:50.487Z,1014.0
2018-09-24T11:14:51.286Z,1014.0
2018-09-24T11:15:52.191Z,1014.0
2018-09-24T11:16:53.012Z,1014.0
2018-09-24T11:17:53.809Z,1014.0
2018-09-24T11:18:54.688Z,1014.0
2018-09-24T11:19:55.672Z,1014.0
2018-09-24T11:20:57.248Z,1014.0
2018-09-24T11:21:58.248Z,1014.0
2018-09-24T11:22:59.272Z,1014.1
2018-09-24T11:24:00.258Z,1014.1
2018-09-24T11:25:01.248Z,1014.1
2018-09-24T11:26:02.019Z,1014.0
2018-09-24T11:27:02.817Z,1014.0
2018-09-24T11:28:03.596Z,1014.0
2018-09-24T11:29:04.396Z,1014.0
2018-09-24T11:30:05.181Z,1014.0
2018-09-24T11:31:05.959Z,1014.1
2018-09-24T11:32:06.754Z,1014.0
2018-09-24T11:33:07.520Z,1014.0
2018-09-24T11:34:08.481Z,1013.9
2018-09-24T11:35:09.470Z,1014.0
2018-09-24T11:36:10.471Z,1014.0
2018-09-24T11:37:11.472Z,1014.0
2018-09-24T11:38:12.256Z,1014.0
2018-09-24T11:39:13.023Z,1013.9
2018-09-24T11:40:14.025Z,1013.9
2018-09-24T11:41:15.011Z,1014.0
2018-09-24T11:42:16.263Z,1013.9
2018-09-24T11:43:17.053Z,1013.9
2018-09-24T11:44:18.084Z,1014.0
2018-09-24T11:45:18.865Z,1014.0
2018-09-24T11:46:19.642Z,1014.0
2018-09-24T11:47:20.403Z,1014.0
2018-09-24T11:48:21.195Z,1014.0
2018-09-24T11:49:22.183Z,1013.9
2018-09-24T11:50:23.175Z,1014.0
2018-09-24T11:51:24.198Z,1014.0
2018-09-24T11:52:25.187Z,1014.1
2018-09-24T11:53:26.174Z,1014.0
2018-09-24T11:54:27.170Z,1014.1
2018-09-24T11:55:27.944Z,1014.0
2018-09-24T11:56:28.777Z,1014.1
2018-09-24T11:57:29.784Z,1014.1
2018-09-24T11:58:30.575Z,1014.2
2018-09-24T11:59:31.390Z,1014.3
2018-09-24T12:00:32.194Z,1014.3
2018-09-24T12:01:33.009Z,1014.3
2018-09-24T12:02:33.818Z,1014.3
2018-09-24T12:03:34.799Z,1014.3
2018-09-24T12:04:35.778Z,1014.3
2018-09-24T12:05:36.749Z,1014.3
2018-09-24T12:06:37.735Z,1014.2
2018-09-24T12:07:38.741Z,1014.1
2018-09-24T12:08:39.767Z,1014.1
2018-09-24T12:09:40.578Z,1014.1
2018-09-24T12:10:41.650Z,1014.1
2018-09-24T12:11:42.646Z,1014.0
2018-09-24T12:12:43.424Z,1014.1
2018-09-24T12:13:44.213Z,1014.1
2018-09-24T12:14:45.030Z,1014.1
2018-09-24T12:15:46.020Z,1014.1
2018-09-24T12:16:47.510Z,1014.2
2018-09-24T12:17:49.223Z,1014.1
2018-09-24T12:18:50.526Z,1014.1
2018-09-24T12:19:51.625Z,1014.1
2018-09-24T12:20:52.408Z,1014.1
2018-09-24T12:21:53.204Z,1014.1
2018-09-24T12:22:54.010Z,1014.2
2018-09-24T12:23:55.033Z,1014.1
2018-09-24T12:24:55.877Z,1014.1
2018-09-24T12:25:56.650Z,1014.1
2018-09-24T12:26:57.396Z,1014.1
2018-09-24T12:27:58.387Z,1014.1
2018-09-24T12:28:59.384Z,1014.2
2018-09-24T12:30:00.372Z,1014.2
2018-09-24T12:31:01.898Z,1014.1
2018-09-24T12:32:03.007Z,1014.1
2018-09-24T12:33:03.793Z,1014.2
2018-09-24T12:34:04.592Z,1014.2
2018-09-24T12:35:06.001Z,1014.2
2018-09-24T12:36:07.061Z,1014.3
2018-09-24T12:37:08.675Z,1014.2
2018-09-24T12:38:09.671Z,1014.3
2018-09-24T12:39:10.659Z,1014.5
2018-09-24T12:40:11.647Z,1014.5
2018-09-24T12:41:12.482Z,1014.5
2018-09-24T12:42:13.498Z,1014.6
2018-09-24T12:43:14.490Z,1014.7
2018-09-24T12:44:15.555Z,1014.7